KMCW

Mason City Municipal Airport

Mason City, Iowa, USA
METAR KMCW 231153Z AUTO 33007KT 10SM CLR M02/M03 A3034 RMK AO2 SLP278 T10171033 10017 21028 51014
Observed Flight Rules
Oct-23 @ 11:53 UTC (57 minutes ago) Visual Flight Rules
Wind Visibility Clouds
330° at 7 knots 10 miles
  • Clear skies
Temperatures Readings
Current -2°C / 28°F
Dewpoint -3°C / 27°F
Humidity 93%
Altimeter 30.34" Hg
Pressure 1027.8 hPa
Elevation 369
METAR KMCW 231153Z AUTO 33007KT 10SM CLR M02/M03 A3034 RMK AO2 SLP278 T10171033 10017 21028 51014
Observed Flight Rules
Oct-23 @ 11:53 UTC
(57 minutes ago)
VFR
Wind Visibility
330° at 7 knots 10 miles
Clouds
  • Clear skies
Temperature Dewpoint
-2°C / 28°F -3°C / 27°F
Humidity Altimeter Pressure
93% 30.34" Hg 1027.8 hPa